Time;durP1;ratioP1;P1;durP2;ratioP2;P2;SDS_P1;SDS_P2;PMS_P1;PMS_P2;Temp;Humidity;BMP_temperature;BMP_pressure;BME280_temperature;BME280_humidity;BME280_pressure;Samples;Min_cycle;Max_cycle;Signal;HPM_P1;HPM_P2
2021/12/08 00:01:26;;;;;;;62.47;24.63;;;;;;;;;;2298807;58;21098;-81
2021/12/08 00:03:53;;;;;;;64.95;27.75;;;;;;;;;;2298745;58;21641;-80
2021/12/08 00:06:21;;;;;;;62.65;26.92;;;;;;;;;;2299187;58;21062;-80
2021/12/08 00:09:00;;;;;;;64.50;27.25;;;;;;;;;;2297420;58;21601;-80
2021/12/08 00:14:13;;;;;;;67.85;27.10;;;;;;;;;;2297874;58;21074;-79
2021/12/08 00:16:40;;;;;;;61.03;25.08;;;;;;;;;;2533667;54;21086;-77
2021/12/08 00:19:07;;;;;;;64.25;26.00;;;;;;;;;;2297257;58;21126;-81
2021/12/08 00:21:33;;;;;;;61.92;25.67;;;;;;;;;;2534131;54;21070;-79
2021/12/08 00:24:00;;;;;;;58.92;25.12;;;;;;;;;;2297423;58;21126;-80
2021/12/08 00:26:28;;;;;;;68.65;26.80;;;;;;;;;;2533418;54;21757;-79
2021/12/08 00:28:55;;;;;;;56.42;22.83;;;;;;;;;;2297250;58;21078;-80
2021/12/08 00:31:22;;;;;;;59.15;22.55;;;;;;;;;;2297637;58;21070;-80
2021/12/08 00:33:49;;;;;;;62.70;25.00;;;;;;;;;;2297893;58;21062;-79
2021/12/08 00:36:17;;;;;;;58.85;25.00;;;;;;;;;;2533267;54;21126;-79
2021/12/08 00:38:44;;;;;;;56.67;23.50;;;;;;;;;;2297168;58;21128;-77
2021/12/08 00:41:12;;;;;;;65.57;25.45;;;;;;;;;;2533043;54;21069;-80
2021/12/08 00:43:40;;;;;;;63.97;26.12;;;;;;;;;;2533465;54;21621;-79
2021/12/08 00:46:08;;;;;;;61.25;24.25;;;;;;;;;;2297508;58;21074;-79
2021/12/08 00:48:35;;;;;;;62.78;25.35;;;;;;;;;;2297295;58;21209;-80
2021/12/08 00:51:02;;;;;;;59.13;23.50;;;;;;;;;;2533184;54;21074;-79
2021/12/08 00:53:29;;;;;;;61.30;25.95;;;;;;;;;;2296856;58;21058;-78
2021/12/08 00:55:56;;;;;;;64.15;24.05;;;;;;;;;;2532853;54;21070;-78
2021/12/08 00:58:24;;;;;;;57.92;24.60;;;;;;;;;;2297332;58;21130;-80
2021/12/08 01:00:52;;;;;;;60.53;25.23;;;;;;;;;;2533279;54;21086;-79
2021/12/08 01:03:19;;;;;;;54.85;23.52;;;;;;;;;;2533089;54;21074;-79
2021/12/08 01:05:48;;;;;;;60.25;23.67;;;;;;;;;;2297331;58;21201;-80
2021/12/08 01:08:15;;;;;;;60.42;24.37;;;;;;;;;;2533415;54;21071;-79
2021/12/08 01:10:43;;;;;;;57.88;23.50;;;;;;;;;;2296760;58;21142;-79
2021/12/08 01:13:11;;;;;;;58.25;22.87;;;;;;;;;;2297326;58;21070;-78
2021/12/08 01:15:40;;;;;;;46.92;21.23;;;;;;;;;;2297368;58;21137;-79
2021/12/08 01:18:07;;;;;;;53.25;21.42;;;;;;;;;;2296297;58;21558;-80
2021/12/08 01:20:34;;;;;;;54.10;22.73;;;;;;;;;;2296996;58;21046;-80
2021/12/08 01:23:01;;;;;;;60.15;22.77;;;;;;;;;;2297163;58;21142;-79
2021/12/08 01:25:28;;;;;;;66.30;25.80;;;;;;;;;;2296819;58;21145;-80
2021/12/08 01:27:55;;;;;;;57.62;23.20;;;;;;;;;;2297159;58;21067;-79
2021/12/08 01:30:23;;;;;;;56.20;22.35;;;;;;;;;;2296810;58;21070;-78
2021/12/08 01:32:52;;;;;;;53.75;21.98;;;;;;;;;;2297298;58;21074;-79
2021/12/08 01:35:19;;;;;;;61.75;24.27;;;;;;;;;;2533425;54;21105;-79
2021/12/08 01:37:46;;;;;;;55.08;23.45;;;;;;;;;;2533359;54;21121;-80
2021/12/08 01:40:15;;;;;;;57.38;22.48;;;;;;;;;;2532977;54;21075;-80
2021/12/08 01:42:45;;;;;;;58.55;22.65;;;;;;;;;;2297105;58;21054;-79
2021/12/08 01:47:58;;;;;;;57.62;24.08;;;;;;;;;;2297171;58;21030;-79
2021/12/08 01:50:26;;;;;;;52.88;23.15;;;;;;;;;;2296878;58;21070;-79
2021/12/08 01:52:53;;;;;;;55.25;24.08;;;;;;;;;;2297294;58;21336;-79
2021/12/08 01:55:20;;;;;;;62.03;26.05;;;;;;;;;;2297134;58;21120;-78
2021/12/08 01:57:47;;;;;;;53.97;23.27;;;;;;;;;;2297415;58;21070;-79
2021/12/08 02:00:17;;;;;;;56.37;25.33;;;;;;;;;;2296963;58;21074;-79
2021/12/08 02:02:44;;;;;;;60.78;24.58;;;;;;;;;;2297179;58;21145;-78
2021/12/08 02:05:11;;;;;;;58.90;23.02;;;;;;;;;;2297101;58;21106;-80
2021/12/08 02:07:39;;;;;;;61.63;25.50;;;;;;;;;;2296568;58;21141;-79
2021/12/08 02:10:07;;;;;;;63.95;23.50;;;;;;;;;;2296970;58;21054;-79
2021/12/08 02:12:37;;;;;;;60.58;25.60;;;;;;;;;;2297368;58;21106;-80
2021/12/08 02:15:05;;;;;;;50.28;22.60;;;;;;;;;;2297192;58;21668;-80
2021/12/08 02:17:32;;;;;;;57.85;23.87;;;;;;;;;;2533551;54;21129;-79
2021/12/08 02:19:59;;;;;;;57.83;22.13;;;;;;;;;;2533013;54;21054;-79
2021/12/08 02:22:26;;;;;;;62.05;22.42;;;;;;;;;;2297306;58;21198;-79
2021/12/08 02:24:53;;;;;;;51.95;19.95;;;;;;;;;;2532913;54;21058;-79
2021/12/08 02:27:20;;;;;;;50.25;20.95;;;;;;;;;;2296947;58;21121;-79
2021/12/08 02:29:53;;;;;;;57.45;24.02;;;;;;;;;;2533162;54;21420;-79
2021/12/08 02:46:39;;;;;;;50.17;20.83;;;;;;;;;;2297100;58;21117;-78
2021/12/08 02:49:06;;;;;;;50.70;21.55;;;;;;;;;;2298533;58;21146;-79
2021/12/08 02:51:36;;;;;;;46.30;18.62;;;;;;;;;;2297956;58;21125;-78
2021/12/08 02:54:03;;;;;;;49.83;21.52;;;;;;;;;;2298064;58;21046;-79
2021/12/08 02:56:30;;;;;;;50.08;20.77;;;;;;;;;;2298207;58;21153;-79
2021/12/08 02:58:58;;;;;;;47.60;19.37;;;;;;;;;;2534216;54;21110;-79
2021/12/08 03:01:25;;;;;;;45.12;20.52;;;;;;;;;;2297776;58;21130;-79
2021/12/08 03:03:52;;;;;;;54.20;20.95;;;;;;;;;;2298282;58;21066;-79
2021/12/08 03:06:20;;;;;;;45.88;20.23;;;;;;;;;;2533738;54;21098;-78
2021/12/08 03:08:47;;;;;;;44.65;20.02;;;;;;;;;;2534387;54;21070;-79
2021/12/08 03:11:14;;;;;;;47.78;20.33;;;;;;;;;;2298109;58;21086;-79
2021/12/08 03:13:43;;;;;;;45.22;19.52;;;;;;;;;;2298117;58;21070;-78
2021/12/08 03:16:11;;;;;;;47.65;20.70;;;;;;;;;;2298459;58;21086;-79
2021/12/08 03:18:38;;;;;;;47.08;19.08;;;;;;;;;;2297254;58;21066;-79
2021/12/08 03:21:06;;;;;;;43.28;18.48;;;;;;;;;;2297706;58;21110;-79
2021/12/08 03:23:45;;;;;;;42.28;18.42;;;;;;;;;;2298129;58;21119;-79
2021/12/08 03:26:12;;;;;;;49.03;21.00;;;;;;;;;;2298199;58;21216;-79
2021/12/08 03:28:46;;;;;;;45.92;18.60;;;;;;;;;;2298022;58;21118;-79
2021/12/08 03:31:17;;;;;;;54.58;22.05;;;;;;;;;;2298342;58;21188;-79
2021/12/08 03:33:45;;;;;;;45.95;20.02;;;;;;;;;;2298641;58;21907;-82
2021/12/08 03:36:12;;;;;;;41.92;19.65;;;;;;;;;;2534255;54;21114;-79
2021/12/08 03:38:39;;;;;;;45.30;20.80;;;;;;;;;;2298283;58;21067;-80
2021/12/08 03:41:08;;;;;;;44.97;19.23;;;;;;;;;;2534128;54;21062;-80
2021/12/08 03:43:34;;;;;;;47.55;19.10;;;;;;;;;;2298154;58;21142;-78
2021/12/08 03:46:01;;;;;;;45.92;20.50;;;;;;;;;;2298049;58;21637;-78
2021/12/08 03:48:31;;;;;;;49.90;20.58;;;;;;;;;;2534452;54;21094;-79
2021/12/08 03:50:59;;;;;;;46.70;19.08;;;;;;;;;;2297856;58;21129;-79
2021/12/08 03:53:26;;;;;;;46.20;20.10;;;;;;;;;;2297913;58;21141;-78
2021/12/08 03:55:54;;;;;;;46.30;20.52;;;;;;;;;;2298355;58;21578;-79
2021/12/08 03:58:21;;;;;;;48.25;19.87;;;;;;;;;;2298304;58;21078;-79
2021/12/08 04:00:49;;;;;;;44.83;19.62;;;;;;;;;;2298046;58;21123;-80
2021/12/08 04:03:17;;;;;;;45.80;20.45;;;;;;;;;;2533506;54;21114;-80
2021/12/08 04:05:51;;;;;;;48.17;20.05;;;;;;;;;;2298348;58;21129;-80
2021/12/08 04:08:26;;;;;;;52.62;22.23;;;;;;;;;;2298508;58;21097;-80
2021/12/08 04:10:54;;;;;;;46.25;21.25;;;;;;;;;;2535294;54;21094;-80
2021/12/08 04:13:23;;;;;;;38.55;15.90;;;;;;;;;;2299789;58;21110;-80
2021/12/08 04:15:50;;;;;;;46.75;19.90;;;;;;;;;;2299545;58;21069;-80
2021/12/08 04:18:17;;;;;;;47.72;20.65;;;;;;;;;;2432091;53;68514;-76
2021/12/08 04:20:46;;;;;;;45.47;20.23;;;;;;;;;;2285222;59;21092;-75
2021/12/08 04:23:14;;;;;;;52.13;22.25;;;;;;;;;;2285782;59;21215;-76
2021/12/08 04:25:44;;;;;;;48.10;21.27;;;;;;;;;;2285821;59;21128;-76
2021/12/08 04:28:13;;;;;;;51.72;22.85;;;;;;;;;;2284146;59;21125;-76
2021/12/08 04:30:41;;;;;;;43.47;19.02;;;;;;;;;;2283895;59;21067;-76
2021/12/08 04:33:09;;;;;;;53.83;22.05;;;;;;;;;;2284112;59;21144;-76
2021/12/08 04:35:36;;;;;;;48.40;22.35;;;;;;;;;;2283920;59;21049;-75
2021/12/08 04:38:07;;;;;;;52.03;23.00;;;;;;;;;;2284358;59;21044;-75
2021/12/08 04:40:47;;;;;;;46.33;21.10;;;;;;;;;;2283491;59;21075;-76
2021/12/08 04:43:20;;;;;;;43.72;20.12;;;;;;;;;;2284342;59;21148;-75
2021/12/08 04:45:57;;;;;;;54.10;23.00;;;;;;;;;;2284397;59;21053;-76
2021/12/08 04:48:40;;;;;;;47.83;20.30;;;;;;;;;;2284525;59;21113;-76
2021/12/08 04:51:28;;;;;;;49.78;18.77;;;;;;;;;;2284288;59;21060;-76
2021/12/08 05:00:13;;;;;;;52.10;22.48;;;;;;;;;;2284313;59;21124;-75
2021/12/08 05:03:20;;;;;;;45.00;20.30;;;;;;;;;;2284113;59;21069;-76
2021/12/08 05:06:04;;;;;;;52.03;21.40;;;;;;;;;;2284188;59;21127;-75
2021/12/08 05:08:40;;;;;;;48.80;20.95;;;;;;;;;;2284207;59;21064;-76
2021/12/08 05:11:09;;;;;;;56.55;23.98;;;;;;;;;;2284082;59;21196;-76
2021/12/08 05:13:36;;;;;;;44.58;19.20;;;;;;;;;;2283890;59;21063;-75
2021/12/08 05:16:04;;;;;;;50.03;21.17;;;;;;;;;;2284359;59;21144;-75
2021/12/08 05:18:33;;;;;;;46.83;20.02;;;;;;;;;;2286543;59;21306;-75
2021/12/08 05:21:04;;;;;;;49.22;21.55;;;;;;;;;;2286309;59;21546;-75
2021/12/08 05:23:33;;;;;;;54.90;22.60;;;;;;;;;;2288236;59;21065;-76
2021/12/08 05:26:02;;;;;;;46.60;18.15;;;;;;;;;;2288247;59;21581;-75
2021/12/08 05:28:29;;;;;;;51.88;21.77;;;;;;;;;;2288366;59;21600;-76
2021/12/08 05:30:58;;;;;;;45.28;19.45;;;;;;;;;;2287731;59;21563;-76
2021/12/08 05:33:26;;;;;;;55.72;22.85;;;;;;;;;;2287968;59;21057;-75
2021/12/08 05:35:53;;;;;;;55.83;24.77;;;;;;;;;;2288396;59;21124;-75
2021/12/08 05:38:20;;;;;;;54.78;23.00;;;;;;;;;;2288181;59;21596;-76
2021/12/08 05:40:50;;;;;;;49.97;21.17;;;;;;;;;;2287963;59;21196;-75
2021/12/08 05:43:17;;;;;;;53.60;23.75;;;;;;;;;;2287948;59;21682;-75
2021/12/08 05:45:44;;;;;;;50.30;21.33;;;;;;;;;;2288356;59;21104;-75
2021/12/08 05:48:12;;;;;;;52.33;21.33;;;;;;;;;;2288057;59;21112;-75
2021/12/08 05:50:44;;;;;;;57.62;23.05;;;;;;;;;;2287549;59;21056;-75
2021/12/08 05:53:11;;;;;;;60.28;23.33;;;;;;;;;;2288631;59;21332;-75
2021/12/08 05:55:39;;;;;;;52.62;23.05;;;;;;;;;;2483091;55;21725;-75
2021/12/08 05:58:07;;;;;;;53.17;23.02;;;;;;;;;;2288512;59;21068;-75
2021/12/08 06:00:36;;;;;;;54.15;21.05;;;;;;;;;;2287869;59;21041;-75
2021/12/08 06:03:03;;;;;;;52.17;23.05;;;;;;;;;;2288186;59;21175;-75
2021/12/08 06:05:30;;;;;;;56.28;24.15;;;;;;;;;;2287920;59;21060;-75
2021/12/08 06:07:58;;;;;;;58.45;23.55;;;;;;;;;;2287997;59;21060;-74
2021/12/08 06:10:29;;;;;;;55.22;24.02;;;;;;;;;;2287845;59;21052;-76
2021/12/08 06:12:57;;;;;;;59.75;22.20;;;;;;;;;;2288290;59;21123;-74
2021/12/08 06:15:26;;;;;;;59.30;24.63;;;;;;;;;;2287992;59;21630;-74
2021/12/08 06:17:53;;;;;;;53.35;23.35;;;;;;;;;;2347264;55;21053;-74
2021/12/08 06:20:20;;;;;;;53.25;23.17;;;;;;;;;;2287944;59;21539;-74
2021/12/08 06:22:49;;;;;;;53.87;22.00;;;;;;;;;;2288266;59;21064;-75
2021/12/08 06:25:17;;;;;;;63.80;25.37;;;;;;;;;;2288155;59;21053;-75
2021/12/08 06:27:44;;;;;;;53.45;23.38;;;;;;;;;;2287950;59;21072;-74
2021/12/08 06:30:13;;;;;;;61.75;22.77;;;;;;;;;;2287588;59;21060;-75
2021/12/08 06:32:41;;;;;;;54.22;24.17;;;;;;;;;;2287985;59;21115;-74
2021/12/08 06:35:10;;;;;;;52.78;22.50;;;;;;;;;;2285835;59;21119;-74
2021/12/08 06:37:39;;;;;;;58.47;21.75;;;;;;;;;;2287846;59;21085;-74
2021/12/08 06:40:08;;;;;;;55.00;24.23;;;;;;;;;;2286852;59;21132;-74
2021/12/08 06:42:37;;;;;;;59.13;24.08;;;;;;;;;;2287790;59;21060;-74
2021/12/08 06:45:05;;;;;;;58.58;23.85;;;;;;;;;;2287546;59;21093;-74
2021/12/08 06:47:34;;;;;;;58.15;23.00;;;;;;;;;;2287581;59;21060;-74
2021/12/08 06:50:03;;;;;;;48.92;21.12;;;;;;;;;;2287317;59;21049;-74
2021/12/08 06:52:32;;;;;;;59.13;23.83;;;;;;;;;;2287587;59;21547;-75
2021/12/08 06:55:00;;;;;;;55.72;21.73;;;;;;;;;;2296195;55;21096;-74
2021/12/08 06:57:29;;;;;;;50.65;22.87;;;;;;;;;;2290194;55;21100;-74
2021/12/08 06:59:59;;;;;;;59.25;24.63;;;;;;;;;;2287012;55;21571;-74
2021/12/08 07:02:51;;;;;;;51.20;21.92;;;;;;;;;;2298813;55;21073;-74
2021/12/08 07:05:27;;;;;;;54.28;20.60;;;;;;;;;;2288182;59;21132;-75
2021/12/08 07:07:56;;;;;;;59.90;24.87;;;;;;;;;;2298216;55;21064;-75
2021/12/08 07:10:27;;;;;;;56.08;21.10;;;;;;;;;;2289531;55;21147;-75
2021/12/08 07:12:56;;;;;;;51.75;21.10;;;;;;;;;;2288504;59;21163;-74
2021/12/08 07:15:25;;;;;;;52.62;22.35;;;;;;;;;;2288222;59;21053;-74
2021/12/08 07:17:54;;;;;;;50.80;22.27;;;;;;;;;;2288002;59;21044;-73
2021/12/08 07:20:39;;;;;;;46.85;20.92;;;;;;;;;;2264345;59;21077;-76
2021/12/08 07:23:06;;;;;;;55.78;22.45;;;;;;;;;;2264854;59;21121;-74
2021/12/08 07:25:33;;;;;;;47.62;20.95;;;;;;;;;;2265288;59;21661;-73
2021/12/08 07:28:01;;;;;;;56.33;23.35;;;;;;;;;;2265542;59;21053;-74
2021/12/08 07:30:30;;;;;;;51.72;21.35;;;;;;;;;;2264602;59;21133;-73
2021/12/08 07:32:58;;;;;;;52.88;23.00;;;;;;;;;;2265535;59;21627;-73
2021/12/08 07:35:26;;;;;;;44.15;21.60;;;;;;;;;;2265239;59;21056;-74
2021/12/08 07:37:54;;;;;;;57.60;25.90;;;;;;;;;;2265517;59;21121;-74
2021/12/08 07:40:23;;;;;;;52.33;19.60;;;;;;;;;;2264141;59;21148;-73
2021/12/08 07:42:52;;;;;;;58.55;22.95;;;;;;;;;;2264322;59;21635;-74
2021/12/08 07:45:21;;;;;;;57.08;23.55;;;;;;;;;;2265084;59;21710;-74
2021/12/08 07:47:49;;;;;;;49.95;22.17;;;;;;;;;;2263794;59;21065;-73
2021/12/08 07:50:19;;;;;;;47.47;22.87;;;;;;;;;;2264122;59;21097;-73
2021/12/08 07:52:48;;;;;;;57.35;23.30;;;;;;;;;;2264811;59;21045;-73
2021/12/08 07:55:16;;;;;;;55.92;23.02;;;;;;;;;;2265306;59;21065;-73
2021/12/08 07:57:44;;;;;;;61.28;26.08;;;;;;;;;;2264452;59;21647;-74
2021/12/08 08:00:14;;;;;;;52.55;23.50;;;;;;;;;;2264065;59;21125;-74
2021/12/08 08:02:41;;;;;;;45.80;20.17;;;;;;;;;;2264913;59;21053;-75
2021/12/08 08:05:09;;;;;;;53.78;22.50;;;;;;;;;;2263950;59;21101;-74
2021/12/08 08:07:36;;;;;;;52.53;23.05;;;;;;;;;;2264927;59;21069;-74
2021/12/08 08:10:12;;;;;;;46.15;20.65;;;;;;;;;;2264987;59;21049;-74
2021/12/08 08:12:41;;;;;;;63.53;26.20;;;;;;;;;;2265325;59;21060;-74
2021/12/08 08:15:10;;;;;;;52.55;22.70;;;;;;;;;;2265331;59;21136;-74
2021/12/08 08:17:42;;;;;;;51.58;22.35;;;;;;;;;;2265123;59;21105;-74
2021/12/08 08:20:13;;;;;;;50.90;23.53;;;;;;;;;;2262752;59;21211;-74
2021/12/08 08:22:40;;;;;;;52.72;22.35;;;;;;;;;;2265060;59;21109;-74
2021/12/08 08:25:09;;;;;;;49.22;21.73;;;;;;;;;;2264324;59;21097;-74
2021/12/08 08:27:37;;;;;;;51.47;21.45;;;;;;;;;;2264800;59;21592;-74
2021/12/08 08:30:08;;;;;;;51.20;22.10;;;;;;;;;;2264223;59;21124;-74
2021/12/08 08:32:39;;;;;;;52.88;21.98;;;;;;;;;;2278607;55;21132;-74
2021/12/08 08:35:09;;;;;;;57.95;25.02;;;;;;;;;;2264685;59;21200;-74
2021/12/08 08:37:36;;;;;;;47.97;22.60;;;;;;;;;;2367482;55;21057;-74
2021/12/08 08:40:06;;;;;;;46.92;22.62;;;;;;;;;;2263327;59;21141;-74
2021/12/08 08:42:35;;;;;;;50.85;23.55;;;;;;;;;;2265591;59;21160;-74
2021/12/08 08:45:05;;;;;;;52.47;23.95;;;;;;;;;;2265315;59;21061;-74
2021/12/08 08:47:33;;;;;;;40.95;18.87;;;;;;;;;;2264812;59;21149;-74
2021/12/08 08:50:01;;;;;;;48.03;21.15;;;;;;;;;;2264499;59;21119;-73
2021/12/08 08:52:29;;;;;;;50.70;21.65;;;;;;;;;;2265038;59;21069;-73
2021/12/08 08:54:59;;;;;;;49.80;22.92;;;;;;;;;;2265360;59;21057;-74
2021/12/08 08:57:30;;;;;;;46.40;20.67;;;;;;;;;;2265514;59;21215;-73
2021/12/08 08:59:58;;;;;;;50.55;19.48;;;;;;;;;;2264576;59;21065;-73
2021/12/08 09:02:26;;;;;;;51.63;21.77;;;;;;;;;;2265108;59;21140;-73
2021/12/08 09:04:54;;;;;;;43.70;20.92;;;;;;;;;;2265064;59;21156;-73
2021/12/08 09:07:24;;;;;;;48.97;19.98;;;;;;;;;;2276060;55;21788;-73
2021/12/08 09:09:54;;;;;;;45.85;20.67;;;;;;;;;;2265811;55;21085;-73
2021/12/08 09:12:24;;;;;;;49.10;20.42;;;;;;;;;;2264912;59;21152;-73
2021/12/08 09:14:52;;;;;;;44.97;19.73;;;;;;;;;;2264782;59;21057;-73
2021/12/08 09:17:20;;;;;;;41.75;18.40;;;;;;;;;;2276281;55;21038;-74
2021/12/08 09:19:50;;;;;;;45.45;21.50;;;;;;;;;;2266939;55;21580;-74
2021/12/08 09:22:20;;;;;;;46.30;21.30;;;;;;;;;;2263935;59;21551;-74
2021/12/08 09:24:49;;;;;;;42.80;18.58;;;;;;;;;;2265560;55;21532;-74
2021/12/08 09:27:17;;;;;;;44.75;18.42;;;;;;;;;;2264548;59;21558;-74
2021/12/08 09:29:47;;;;;;;41.42;20.60;;;;;;;;;;2264993;59;21101;-73
2021/12/08 09:32:18;;;;;;;46.72;20.90;;;;;;;;;;2265146;59;21683;-73
2021/12/08 09:34:54;;;;;;;42.62;21.12;;;;;;;;;;2265461;59;22207;-74
2021/12/08 09:37:22;;;;;;;48.25;22.52;;;;;;;;;;2265510;59;21105;-74
2021/12/08 09:39:51;;;;;;;44.10;20.85;;;;;;;;;;2265163;59;21120;-74
2021/12/08 09:42:20;;;;;;;46.53;23.42;;;;;;;;;;2265180;59;21638;-74
2021/12/08 09:44:49;;;;;;;40.67;19.92;;;;;;;;;;2265552;59;21832;-74
2021/12/08 09:47:16;;;;;;;38.67;17.48;;;;;;;;;;2265201;59;21571;-74
2021/12/08 09:49:47;;;;;;;40.17;19.02;;;;;;;;;;2265185;59;21651;-74
2021/12/08 09:52:15;;;;;;;45.00;20.92;;;;;;;;;;2265442;59;21133;-74
2021/12/08 09:54:42;;;;;;;37.65;17.27;;;;;;;;;;2265606;59;21176;-73
2021/12/08 09:57:13;;;;;;;43.38;20.02;;;;;;;;;;2265390;59;21062;-74
2021/12/08 09:59:46;;;;;;;39.95;19.15;;;;;;;;;;2264761;59;21069;-74
2021/12/08 10:02:14;;;;;;;42.55;20.35;;;;;;;;;;2265683;59;21073;-74
2021/12/08 10:04:41;;;;;;;38.50;18.50;;;;;;;;;;2265330;59;21061;-74
2021/12/08 10:07:10;;;;;;;37.95;18.42;;;;;;;;;;2265500;59;21576;-74
2021/12/08 10:09:37;;;;;;;38.05;19.92;;;;;;;;;;2264949;59;21065;-74
2021/12/08 10:12:05;;;;;;;42.53;20.27;;;;;;;;;;2265185;59;21041;-74
2021/12/08 10:14:32;;;;;;;41.70;19.55;;;;;;;;;;2265188;59;21053;-74
2021/12/08 10:16:59;;;;;;;38.00;18.83;;;;;;;;;;2268772;54;21129;-77
2021/12/08 10:19:26;;;;;;;38.15;17.92;;;;;;;;;;2240419;60;21099;-79
2021/12/08 10:21:53;;;;;;;39.60;18.65;;;;;;;;;;2242304;60;21144;-79
2021/12/08 10:24:22;;;;;;;40.03;18.90;;;;;;;;;;2241378;60;21091;-78
2021/12/08 10:26:50;;;;;;;41.03;19.77;;;;;;;;;;2250492;59;21762;-78
2021/12/08 10:29:23;;;;;;;33.75;16.75;;;;;;;;;;2265619;59;21056;-79
2021/12/08 10:31:51;;;;;;;;;;;;;;;;;;2269607;59;22287;-77
2021/12/08 10:34:23;;;;;;;34.05;17.58;;;;;;;;;;2266340;59;20062;-78
2021/12/08 10:36:54;;;;;;;37.78;16.65;;;;;;;;;;2265782;59;21123;-78
2021/12/08 10:39:26;;;;;;;39.17;18.35;;;;;;;;;;2495629;55;21069;-78
2021/12/08 10:42:02;;;;;;;36.20;17.12;;;;;;;;;;2265903;59;21053;-78
2021/12/08 10:44:32;;;;;;;40.38;19.83;;;;;;;;;;2265967;59;21109;-78
2021/12/08 10:46:59;;;;;;;36.28;17.17;;;;;;;;;;2495835;55;21061;-78
2021/12/08 10:55:01;;;;;;;34.83;17.20;;;;;;;;;;2264483;59;21028;-77
2021/12/08 10:57:30;;;;;;;42.38;18.67;;;;;;;;;;2494467;55;21093;-77
2021/12/08 10:59:59;;;;;;;42.83;19.10;;;;;;;;;;2264510;59;21203;-77
2021/12/08 11:02:44;;;;;;;41.63;18.52;;;;;;;;;;2264775;59;21125;-77
2021/12/08 11:05:29;;;;;;;34.22;16.60;;;;;;;;;;2264059;59;21081;-77
2021/12/08 11:08:02;;;;;;;35.90;16.77;;;;;;;;;;2263985;59;21548;-77
2021/12/08 11:10:29;;;;;;;36.30;17.75;;;;;;;;;;2263765;59;21144;-77
2021/12/08 11:19:05;;;;;;;38.63;20.02;;;;;;;;;;2436127;52;20982;-78
2021/12/08 11:21:36;;;;;;;27.45;14.20;;;;;;;;;;2375460;56;21047;-77
2021/12/08 11:51:37;;;;;;;34.50;15.32;;;;;;;;;;2570356;52;21046;-79
2021/12/08 11:54:04;;;;;;;33.55;16.30;;;;;;;;;;2632228;52;21027;-79
2021/12/08 11:56:34;;;;;;;33.33;15.88;;;;;;;;;;2375860;56;21586;-77
2021/12/08 11:59:01;;;;;;;31.87;14.43;;;;;;;;;;2374173;56;21038;-77
2021/12/08 12:01:29;;;;;;;33.05;14.60;;;;;;;;;;2374692;56;21019;-78
2021/12/08 12:03:56;;;;;;;33.72;15.75;;;;;;;;;;2376943;56;21062;-78
2021/12/08 12:06:27;;;;;;;30.37;14.43;;;;;;;;;;2376709;56;21597;-78
2021/12/08 12:08:56;;;;;;;29.98;14.30;;;;;;;;;;2376687;56;21019;-79
2021/12/08 12:11:25;;;;;;;32.22;16.35;;;;;;;;;;2376553;56;21471;-78
2021/12/08 12:13:53;;;;;;;32.97;15.98;;;;;;;;;;2376376;56;21077;-78
2021/12/08 12:16:20;;;;;;;33.70;15.77;;;;;;;;;;2630275;52;21541;-79
2021/12/08 12:18:48;;;;;;;33.35;15.68;;;;;;;;;;2376210;56;21611;-79
2021/12/08 12:21:21;;;;;;;33.15;16.58;;;;;;;;;;2376055;56;21082;-79
2021/12/08 12:23:57;;;;;;;31.27;16.15;;;;;;;;;;2375411;56;21043;-79
2021/12/08 12:26:34;;;;;;;36.40;16.75;;;;;;;;;;2376050;56;21165;-79
2021/12/08 12:29:12;;;;;;;30.05;14.98;;;;;;;;;;2375834;56;21090;-79
2021/12/08 12:31:45;;;;;;;33.03;16.23;;;;;;;;;;2376509;56;21035;-79
2021/12/08 12:34:22;;;;;;;32.50;15.35;;;;;;;;;;2377487;56;21522;-80
2021/12/08 12:36:49;;;;;;;35.13;16.42;;;;;;;;;;2377378;56;21070;-79
2021/12/08 12:39:18;;;;;;;39.85;18.23;;;;;;;;;;2631627;52;21031;-79
2021/12/08 12:41:45;;;;;;;36.78;16.83;;;;;;;;;;2377221;56;21660;-78
2021/12/08 12:44:18;;;;;;;31.48;16.25;;;;;;;;;;2375307;56;21126;-79
2021/12/08 12:47:08;;;;;;;33.63;16.35;;;;;;;;;;2375622;56;22139;-77
2021/12/08 12:49:36;;;;;;;32.42;15.90;;;;;;;;;;2617617;52;21035;-77
2021/12/08 12:52:05;;;;;;;33.67;16.08;;;;;;;;;;2628906;52;21121;-78
2021/12/08 12:54:32;;;;;;;40.00;16.12;;;;;;;;;;2628994;52;21015;-78
2021/12/08 12:57:00;;;;;;;38.72;17.52;;;;;;;;;;2375666;56;20999;-77
2021/12/08 12:59:39;;;;;;;40.33;18.60;;;;;;;;;;2375254;56;21027;-77
2021/12/08 13:02:07;;;;;;;34.13;16.80;;;;;;;;;;2375029;56;22190;-77
2021/12/08 13:04:35;;;;;;;39.00;18.25;;;;;;;;;;2375589;56;22123;-77
2021/12/08 13:07:04;;;;;;;37.10;17.95;;;;;;;;;;2375343;56;21015;-79
2021/12/08 13:09:47;;;;;;;38.85;16.08;;;;;;;;;;2376301;56;21022;-79
2021/12/08 13:12:15;;;;;;;40.45;19.00;;;;;;;;;;2376722;56;21023;-79
2021/12/08 13:14:43;;;;;;;41.00;18.70;;;;;;;;;;2376148;56;21513;-78
2021/12/08 13:17:14;;;;;;;41.50;18.90;;;;;;;;;;2377466;56;21015;-80
2021/12/08 13:19:42;;;;;;;39.78;17.50;;;;;;;;;;2375373;56;21452;-77
2021/12/08 13:22:09;;;;;;;40.53;20.25;;;;;;;;;;2375079;56;21063;-77
2021/12/08 13:24:40;;;;;;;39.33;19.65;;;;;;;;;;2374775;56;21535;-78
2021/12/08 13:27:08;;;;;;;39.28;18.55;;;;;;;;;;2375453;56;21019;-78
2021/12/08 13:29:38;;;;;;;42.08;19.35;;;;;;;;;;2375258;56;21031;-79
2021/12/08 13:32:12;;;;;;;48.40;22.77;;;;;;;;;;2629281;52;21086;-79
2021/12/08 13:34:40;;;;;;;46.03;20.27;;;;;;;;;;2629225;52;21066;-78
2021/12/08 13:37:16;;;;;;;45.25;21.55;;;;;;;;;;2375526;56;21711;-78
2021/12/08 13:39:43;;;;;;;40.03;18.55;;;;;;;;;;2628579;52;21601;-78
2021/12/08 13:42:11;;;;;;;45.63;19.75;;;;;;;;;;2375201;56;21517;-79
2021/12/08 13:44:40;;;;;;;48.85;20.67;;;;;;;;;;2628811;52;21051;-79
2021/12/08 13:47:09;;;;;;;43.20;20.90;;;;;;;;;;2376114;56;21011;-79
2021/12/08 13:49:47;;;;;;;50.58;20.92;;;;;;;;;;2629363;52;21564;-79
2021/12/08 13:52:21;;;;;;;40.97;19.17;;;;;;;;;;2376084;56;21074;-79
2021/12/08 13:54:49;;;;;;;44.80;20.92;;;;;;;;;;2376072;56;21561;-80
2021/12/08 13:57:31;;;;;;;42.95;18.33;;;;;;;;;;2376194;56;21090;-80
2021/12/08 13:59:58;;;;;;;39.85;19.52;;;;;;;;;;2376373;56;21027;-80
2021/12/08 14:02:27;;;;;;;47.15;20.98;;;;;;;;;;2376035;56;21556;-80
2021/12/08 14:05:01;;;;;;;41.63;18.05;;;;;;;;;;2376434;56;21015;-80
2021/12/08 14:07:28;;;;;;;46.28;21.37;;;;;;;;;;2376399;56;21011;-79
2021/12/08 14:09:56;;;;;;;47.47;21.70;;;;;;;;;;2628886;52;21162;-81
2021/12/08 14:12:23;;;;;;;45.78;21.98;;;;;;;;;;2375049;56;21513;-81
2021/12/08 14:14:55;;;;;;;43.20;20.98;;;;;;;;;;2375420;56;21538;-80
2021/12/08 14:17:27;;;;;;;116.37;27.75;;;;;;;;;;2375522;56;21074;-80
2021/12/08 14:19:54;;;;;;;45.25;20.90;;;;;;;;;;2628537;52;21138;-81
2021/12/08 14:22:21;;;;;;;46.13;20.80;;;;;;;;;;2375010;56;21545;-81
2021/12/08 14:24:55;;;;;;;48.25;22.17;;;;;;;;;;2375019;56;21012;-80
2021/12/08 14:27:22;;;;;;;47.13;19.87;;;;;;;;;;2375370;56;21093;-80
2021/12/08 14:29:49;;;;;;;51.60;23.35;;;;;;;;;;2375135;56;21508;-80
2021/12/08 14:32:18;;;;;;;41.08;19.45;;;;;;;;;;2374747;56;21039;-80
2021/12/08 14:34:45;;;;;;;55.42;24.17;;;;;;;;;;2629524;52;21494;-80
2021/12/08 14:37:14;;;;;;;57.40;25.95;;;;;;;;;;2375555;56;21097;-79
2021/12/08 14:39:44;;;;;;;1048.55;112.93;;;;;;;;;;2629640;52;21026;-79
2021/12/08 14:42:13;;;;;;;1560.25;163.02;;;;;;;;;;2376569;56;21094;-79
2021/12/08 14:44:42;;;;;;;53.13;24.45;;;;;;;;;;2376567;56;21521;-79
2021/12/08 14:47:10;;;;;;;812.85;98.35;;;;;;;;;;2376358;56;21062;-79
2021/12/08 14:49:40;;;;;;;64.07;27.45;;;;;;;;;;2376597;56;21501;-78
2021/12/08 14:52:09;;;;;;;60.12;25.92;;;;;;;;;;2376595;56;21150;-78
2021/12/08 14:54:37;;;;;;;67.72;29.90;;;;;;;;;;2375584;56;21039;-78
2021/12/08 14:57:07;;;;;;;61.33;27.15;;;;;;;;;;2375899;56;21082;-78
2021/12/08 14:59:35;;;;;;;52.30;23.12;;;;;;;;;;2376074;56;21009;-78
2021/12/08 15:02:02;;;;;;;47.70;19.85;;;;;;;;;;2375615;56;21501;-78
2021/12/08 15:04:33;;;;;;;51.72;23.00;;;;;;;;;;2377379;56;21019;-79
2021/12/08 15:07:02;;;;;;;48.47;22.65;;;;;;;;;;2376249;56;21110;-78
2021/12/08 15:09:29;;;;;;;42.35;19.30;;;;;;;;;;2375939;56;21019;-78
2021/12/08 15:11:58;;;;;;;44.67;20.35;;;;;;;;;;2376265;56;21075;-79
2021/12/08 15:14:25;;;;;;;43.87;20.95;;;;;;;;;;2376258;56;21027;-78
2021/12/08 15:16:53;;;;;;;38.30;18.52;;;;;;;;;;2376107;56;21077;-78
2021/12/08 15:19:21;;;;;;;45.35;20.50;;;;;;;;;;2375561;56;21557;-78
2021/12/08 15:21:50;;;;;;;46.15;21.30;;;;;;;;;;2375165;56;21058;-78
2021/12/08 15:24:19;;;;;;;43.90;20.25;;;;;;;;;;2374694;56;21094;-77
2021/12/08 15:26:46;;;;;;;41.55;19.70;;;;;;;;;;2372813;56;21664;-77
2021/12/08 15:29:18;;;;;;;39.22;18.20;;;;;;;;;;2372325;56;21023;-77
2021/12/08 15:31:49;;;;;;;42.42;20.08;;;;;;;;;;2373107;56;21716;-77
2021/12/08 15:34:18;;;;;;;42.20;20.30;;;;;;;;;;2373223;56;21027;-77